Time;durP1;ratioP1;P1;durP2;ratioP2;P2;SDS_P1;SDS_P2;PMS_P1;PMS_P2;Temp;Humidity;BMP_temperature;BMP_pressure;BME280_temperature;BME280_humidity;BME280_pressure;Samples;Min_cycle;Max_cycle;Signal;HPM_P1;HPM_P2
2024/03/03 00:01:34;;;;;;;136.30;58.60;;;;;;;9.32;100.00;99929.78;213890;1286;97975;-87
2024/03/03 00:06:35;;;;;;;135.80;62.00;;;;;;;9.28;100.00;99920.73;213635;1285;140114;-87
2024/03/03 00:11:35;;;;;;;126.50;56.40;;;;;;;9.24;100.00;99915.36;214192;1284;138863;-88
2024/03/03 00:16:41;;;;;;;124.10;59.00;;;;;;;9.20;100.00;99913.30;213431;1288;141102;-88
2024/03/03 00:21:41;;;;;;;130.90;56.50;;;;;;;9.17;100.00;99914.75;213429;1285;139151;-88
2024/03/03 00:26:42;;;;;;;123.70;55.60;;;;;;;9.14;100.00;99914.56;213227;1285;140003;-87
2024/03/03 00:31:43;;;;;;;128.40;57.30;;;;;;;9.10;100.00;99915.55;214442;1290;97980;-88
2024/03/03 00:36:43;;;;;;;126.30;55.00;;;;;;;9.04;100.00;99910.65;214273;1286;140405;-89
2024/03/03 00:41:44;;;;;;;111.90;51.90;;;;;;;9.02;100.00;99907.34;214745;1285;139080;-86
2024/03/03 00:46:46;;;;;;;125.50;52.60;;;;;;;9.00;100.00;99905.98;214301;1285;140135;-86
2024/03/03 00:51:47;;;;;;;131.00;57.90;;;;;;;8.98;100.00;99903.92;214473;1285;139138;-87
2024/03/03 00:56:48;;;;;;;126.50;52.80;;;;;;;8.96;100.00;99899.60;213962;1284;140204;-87
2024/03/03 01:01:49;;;;;;;119.60;51.90;;;;;;;8.93;100.00;99898.48;214156;1288;98013;-87
2024/03/03 01:06:49;;;;;;;157.90;64.80;;;;;;;8.89;100.00;99897.25;213792;1285;140786;-88
2024/03/03 01:11:53;;;;;;;201.50;71.40;;;;;;;8.85;100.00;99889.61;213884;1288;138964;-87
2024/03/03 01:16:54;;;;;;;139.60;59.20;;;;;;;8.83;100.00;99892.80;213523;1288;140946;-87
2024/03/03 01:21:54;;;;;;;118.50;53.30;;;;;;;8.81;100.00;99892.25;214086;1288;139064;-88
2024/03/03 01:26:54;;;;;;;119.30;54.20;;;;;;;8.80;100.00;99891.35;213457;1285;141061;-87
2024/03/03 01:31:55;;;;;;;105.40;50.40;;;;;;;8.76;100.00;99890.63;214128;1285;139229;-87
2024/03/03 01:36:56;;;;;;;95.00;46.70;;;;;;;8.73;100.00;99880.64;213853;1285;140335;-87
2024/03/03 01:41:56;;;;;;;100.20;46.90;;;;;;;8.70;100.00;99876.92;214286;1285;139352;-87
2024/03/03 01:46:58;;;;;;;101.40;50.20;;;;;;;8.65;100.00;99872.56;213676;1285;140404;-88
2024/03/03 01:52:00;;;;;;;93.90;47.50;;;;;;;8.61;100.00;99865.86;214256;1285;139666;-87
2024/03/03 01:57:02;;;;;;;101.60;48.50;;;;;;;8.58;100.00;99854.23;213630;1285;140145;-87
2024/03/03 02:02:03;;;;;;;107.00;50.40;;;;;;;8.54;100.00;99862.27;214207;1285;140108;-87
2024/03/03 02:07:04;;;;;;;100.00;48.50;;;;;;;8.52;100.00;99854.02;213769;1286;139997;-87
2024/03/03 02:12:05;;;;;;;98.10;48.00;;;;;;;8.51;100.00;99854.97;214083;1284;139093;-87
2024/03/03 02:17:06;;;;;;;92.20;46.50;;;;;;;8.49;100.00;99851.02;213670;1286;139994;-87
2024/03/03 02:22:06;;;;;;;106.40;48.80;;;;;;;8.44;100.00;99845.23;213827;1288;138962;-87
2024/03/03 02:27:07;;;;;;;104.80;50.30;;;;;;;8.39;100.00;99843.55;214200;1285;141270;-87
2024/03/03 02:32:07;;;;;;;116.30;53.90;;;;;;;8.36;100.00;99837.17;214887;1285;139549;-87
2024/03/03 02:37:07;;;;;;;124.50;55.00;;;;;;;8.35;100.00;99830.67;214431;1284;140503;-86
2024/03/03 02:42:08;;;;;;;112.10;51.20;;;;;;;8.31;100.00;99827.89;214876;1288;140666;-88
2024/03/03 02:47:08;;;;;;;113.80;52.50;;;;;;;8.27;100.00;99823.69;214266;1285;140414;-88
2024/03/03 02:52:09;;;;;;;128.00;55.90;;;;;;;8.23;100.00;99823.80;214886;1285;139129;-88
2024/03/03 02:57:09;;;;;;;120.90;54.60;;;;;;;8.17;100.00;99814.23;214158;1284;140674;-88
2024/03/03 03:02:09;;;;;;;109.50;51.30;;;;;;;8.13;100.00;99810.89;214786;1285;139111;-87
2024/03/03 03:07:10;;;;;;;132.40;55.80;;;;;;;8.07;100.00;99812.39;213795;1287;140129;-87
2024/03/03 03:12:10;;;;;;;137.70;58.60;;;;;;;8.01;100.00;99805.67;213866;1290;139375;-87
2024/03/03 03:17:10;;;;;;;118.90;52.00;;;;;;;7.97;100.00;99804.61;213486;1285;140461;-88
2024/03/03 03:22:11;;;;;;;114.10;52.80;;;;;;;7.92;100.00;99806.43;214135;1285;139488;-87
2024/03/03 03:27:11;;;;;;;124.00;53.50;;;;;;;7.87;100.00;99808.86;213696;1288;140355;-87
2024/03/03 03:32:12;;;;;;;131.20;57.70;;;;;;;7.75;100.00;99807.87;214075;1285;139467;-86
2024/03/03 03:37:13;;;;;;;138.40;58.10;;;;;;;7.64;100.00;99808.67;213697;1285;140245;-87
2024/03/03 03:42:13;;;;;;;113.60;52.50;;;;;;;7.55;100.00;99811.83;214067;1285;139357;-87
2024/03/03 03:47:14;;;;;;;111.30;51.80;;;;;;;7.49;100.00;99818.70;213508;1288;140225;-87
2024/03/03 03:52:14;;;;;;;122.90;58.20;;;;;;;7.41;100.00;99818.45;214117;1288;139139;-86
2024/03/03 03:57:15;;;;;;;117.30;51.90;;;;;;;7.36;100.00;99825.34;213584;1288;141910;-86
2024/03/03 04:02:15;;;;;;;117.40;53.40;;;;;;;7.31;100.00;99830.27;214154;1285;139606;-87
2024/03/03 04:07:16;;;;;;;112.70;50.00;;;;;;;7.25;100.00;99830.89;213686;1285;140168;-86
2024/03/03 04:12:16;;;;;;;114.10;51.70;;;;;;;7.21;100.00;99829.59;214207;1285;139632;-87
2024/03/03 04:17:16;;;;;;;115.00;52.80;;;;;;;7.17;100.00;99826.09;213710;1286;140263;-86
2024/03/03 04:22:17;;;;;;;136.80;57.80;;;;;;;7.11;100.00;99826.77;214087;1285;139271;-87
2024/03/03 04:27:17;;;;;;;139.90;59.10;;;;;;;7.06;100.00;99829.35;213630;1288;140083;-87
2024/03/03 04:32:17;;;;;;;123.10;53.70;;;;;;;7.03;100.00;99826.73;213773;1287;139963;-87
2024/03/03 04:37:18;;;;;;;125.20;53.30;;;;;;;6.99;100.00;99828.77;213508;1285;141010;-86
2024/03/03 04:42:19;;;;;;;122.30;55.20;;;;;;;6.93;100.00;99821.65;213722;1290;139005;-88
2024/03/03 04:47:19;;;;;;;135.70;58.00;;;;;;;6.86;100.00;99813.95;213368;1288;140995;-87
2024/03/03 04:52:20;;;;;;;124.90;53.00;;;;;;;6.79;100.00;99811.80;214159;1288;138989;-87
2024/03/03 04:57:20;;;;;;;116.90;55.30;;;;;;;6.75;100.00;99813.92;213548;1288;140677;-87
2024/03/03 05:02:20;;;;;;;132.50;54.60;;;;;;;6.72;100.00;99813.26;213721;1290;139950;-87
2024/03/03 05:07:21;;;;;;;135.70;58.80;;;;;;;6.68;100.00;99817.80;213264;1288;140187;-87
2024/03/03 05:12:21;;;;;;;111.30;51.90;;;;;;;6.65;100.00;99825.25;214152;1288;139025;-86
2024/03/03 05:17:22;;;;;;;122.30;54.30;;;;;;;6.62;100.00;99827.01;213612;1288;140307;-87
2024/03/03 05:22:22;;;;;;;116.10;52.60;;;;;;;6.57;100.00;99819.33;214121;1285;139648;-86
2024/03/03 05:27:22;;;;;;;122.10;54.30;;;;;;;6.51;100.00;99817.04;213572;1284;140180;-86
2024/03/03 05:32:23;;;;;;;100.70;51.20;;;;;;;6.50;100.00;99825.45;214118;1288;138974;-86
2024/03/03 05:37:23;;;;;;;100.10;49.00;;;;;;;6.47;100.00;99837.20;213646;1288;140951;-87
2024/03/03 05:42:24;;;;;;;248.80;87.90;;;;;;;6.44;100.00;99842.52;213834;1287;140955;-86
2024/03/03 05:47:25;;;;;;;133.80;57.70;;;;;;;6.42;100.00;99841.94;213490;1288;141071;-87
2024/03/03 05:52:25;;;;;;;119.80;55.20;;;;;;;6.39;100.00;99837.06;214197;1285;139225;-86
2024/03/03 05:57:26;;;;;;;109.20;51.80;;;;;;;6.40;100.00;99841.35;213663;1285;140331;-86
2024/03/03 06:02:26;;;;;;;108.50;54.00;;;;;;;6.39;100.00;99835.97;214272;1285;139290;-86
2024/03/03 06:07:26;;;;;;;106.20;53.30;;;;;;;6.37;100.00;99829.52;213737;1288;140263;-86
2024/03/03 06:12:27;;;;;;;110.20;53.60;;;;;;;6.37;100.00;99826.33;214232;1285;139343;-86
2024/03/03 06:17:27;;;;;;;109.30;52.90;;;;;;;6.36;100.00;99823.57;213570;1288;139672;-86
2024/03/03 06:22:28;;;;;;;102.00;49.70;;;;;;;6.36;100.00;99826.52;213536;1293;139203;-86
2024/03/03 06:27:28;;;;;;;118.50;54.50;;;;;;;6.37;100.00;99828.89;213228;1288;140185;-86
2024/03/03 06:32:28;;;;;;;106.60;52.80;;;;;;;6.39;100.00;99826.83;213616;1286;138981;-86
2024/03/03 06:37:31;;;;;;;108.60;54.60;;;;;;;6.44;100.00;99829.27;213072;1286;140317;-86
2024/03/03 06:42:34;;;;;;;110.60;52.40;;;;;;;6.48;100.00;99824.55;214206;1285;139177;-86
2024/03/03 06:47:34;;;;;;;109.70;53.90;;;;;;;6.54;100.00;99827.80;213655;1286;140462;-87
2024/03/03 06:52:35;;;;;;;120.30;56.40;;;;;;;6.61;100.00;99827.52;214150;1288;139923;-85
2024/03/03 06:57:35;;;;;;;117.70;56.60;;;;;;;6.71;100.00;99827.38;213654;1285;140244;-86
2024/03/03 07:07:54;;;;;;;104.00;53.60;;;;;;;6.88;100.00;99830.55;213643;1285;140208;-87
2024/03/03 07:12:54;;;;;;;106.20;55.60;;;;;;;6.95;100.00;99833.23;214340;1285;99390;-87
2024/03/03 07:17:55;;;;;;;109.90;54.80;;;;;;;7.03;100.00;99842.52;213588;1285;139916;-86
2024/03/03 07:22:55;;;;;;;101.00;52.70;;;;;;;7.13;100.00;99845.79;214256;1288;139065;-87
2024/03/03 07:27:56;;;;;;;105.30;54.40;;;;;;;7.23;100.00;99845.64;213706;1286;141167;-87
2024/03/03 07:32:56;;;;;;;95.70;51.30;;;;;;;7.30;100.00;99844.89;214232;1288;139018;-86
2024/03/03 07:37:57;;;;;;;99.00;53.00;;;;;;;7.39;100.00;99846.80;213789;1288;140649;-86
2024/03/03 07:42:57;;;;;;;101.90;51.70;;;;;;;7.48;100.00;99845.23;214476;1288;99368;-86
2024/03/03 07:47:58;;;;;;;102.90;51.90;;;;;;;7.58;100.00;99853.42;213715;1285;140268;-86
2024/03/03 07:52:58;;;;;;;95.00;52.60;;;;;;;7.67;100.00;99854.02;214168;1286;139214;-86
2024/03/03 07:57:58;;;;;;;93.00;49.40;;;;;;;7.79;100.00;99847.13;213544;1288;140188;-86
2024/03/03 08:03:05;;;;;;;102.90;53.30;;;;;;;7.89;100.00;99843.42;214086;1289;139111;-86
2024/03/03 08:08:06;;;;;;;100.80;52.30;;;;;;;8.03;100.00;99846.40;213358;1288;140176;-88
2024/03/03 08:13:06;;;;;;;97.30;52.00;;;;;;;8.17;100.00;99850.10;214294;1288;97958;-87
2024/03/03 08:18:07;;;;;;;90.70;50.00;;;;;;;8.29;100.00;99851.83;213529;1286;139878;-87
2024/03/03 08:23:07;;;;;;;93.30;49.80;;;;;;;8.42;100.00;99851.56;213734;1290;139119;-89
2024/03/03 08:28:08;;;;;;;93.80;50.50;;;;;;;8.58;100.00;99845.95;213561;1286;160482;-90
2024/03/03 08:33:08;;;;;;;86.80;50.10;;;;;;;8.76;100.00;99843.75;214132;1288;138926;-90
2024/03/03 08:38:09;;;;;;;89.30;48.10;;;;;;;8.96;100.00;99849.19;213506;1288;140048;-88
2024/03/03 08:43:10;;;;;;;82.50;46.70;;;;;;;9.19;100.00;99857.98;214326;1285;99217;-89
2024/03/03 08:48:10;;;;;;;88.50;48.80;;;;;;;9.39;100.00;99857.48;214996;1285;140271;-89
2024/03/03 08:53:10;;;;;;;80.90;44.90;;;;;;;9.59;100.00;99850.55;213853;1286;138687;-89
2024/03/03 08:58:11;;;;;;;80.80;47.00;;;;;;;9.85;100.00;99844.41;213310;1290;140455;-90
2024/03/03 09:03:11;;;;;;;76.20;42.40;;;;;;;10.10;100.00;99843.90;213535;1293;139711;-88
2024/03/03 09:08:12;;;;;;;69.10;41.30;;;;;;;10.37;100.00;99846.75;213123;1290;140811;-87
2024/03/03 09:13:12;;;;;;;69.00;40.00;;;;;;;10.70;100.00;99847.59;213871;1290;98020;-87
2024/03/03 09:18:12;;;;;;;60.90;37.70;;;;;;;11.15;100.00;99848.40;213405;1290;140858;-86
2024/03/03 09:23:13;;;;;;;60.90;33.70;;;;;;;11.61;100.00;99841.65;214190;1289;139237;-87
2024/03/03 09:28:13;;;;;;;54.10;34.30;;;;;;;11.94;100.00;99830.52;213453;1288;140756;-88
2024/03/03 09:33:14;;;;;;;56.00;32.20;;;;;;;12.29;100.00;99826.48;213937;1289;139804;-88
2024/03/03 09:38:14;;;;;;;50.70;32.10;;;;;;;12.70;100.00;99832.23;213590;1288;140630;-88
2024/03/03 09:43:19;;;;;;;50.60;32.30;;;;;;;12.97;100.00;99839.94;214263;1288;98312;-89
2024/03/03 09:48:21;;;;;;;51.30;32.00;;;;;;;13.20;100.00;99833.91;214981;1286;140277;-88
2024/03/03 09:53:21;;;;;;;50.80;32.40;;;;;;;13.57;100.00;99827.86;214215;1289;139268;-89
2024/03/03 09:58:22;;;;;;;48.80;30.90;;;;;;;13.97;100.00;99831.42;213776;1288;141215;-86
2024/03/03 10:03:24;;;;;;;44.70;30.10;;;;;;;14.29;100.00;99827.39;214104;1288;139380;-88
2024/03/03 10:08:27;;;;;;;48.30;27.40;;;;;;;14.43;100.00;99828.77;213701;1295;141252;-87
2024/03/03 10:13:31;;;;;;;77.10;42.70;;;;;;;14.74;100.00;99828.96;213722;1287;105708;-87
2024/03/03 10:18:31;;;;;;;42.80;26.90;;;;;;;14.87;100.00;99833.73;213966;1284;142362;-87
2024/03/03 10:23:32;;;;;;;40.20;26.00;;;;;;;15.25;100.00;99823.16;214303;1286;139638;-87
2024/03/03 10:28:33;;;;;;;41.10;26.10;;;;;;;15.51;100.00;99820.07;213348;1286;141291;-87
2024/03/03 10:33:34;;;;;;;41.00;26.10;;;;;;;15.76;100.00;99809.27;213812;1301;140306;-84
2024/03/03 10:38:34;;;;;;;39.40;25.60;;;;;;;15.94;99.90;99805.20;214275;1286;141299;-88
2024/03/03 10:43:34;;;;;;;38.90;23.90;;;;;;;16.04;99.09;99795.15;214414;1284;97879;-87
2024/03/03 10:48:35;;;;;;;39.50;24.50;;;;;;;16.19;99.27;99789.43;214700;1288;140090;-87
2024/03/03 10:53:35;;;;;;;42.40;26.10;;;;;;;16.36;96.58;99782.00;214743;1287;140539;-89
2024/03/03 10:58:38;;;;;;;35.40;23.80;;;;;;;16.20;94.89;99780.12;213918;1288;140978;-89
2024/03/03 11:03:44;;;;;;;37.40;24.40;;;;;;;16.30;97.56;99770.55;214410;1285;139239;-89
2024/03/03 11:08:51;;;;;;;41.30;25.30;;;;;;;16.56;96.43;99772.20;213620;1286;140566;-85
2024/03/03 11:14:11;;;;;;;37.80;24.20;;;;;;;16.65;93.96;99770.79;214222;1285;139347;-86
2024/03/03 11:19:15;;;;;;;36.90;24.10;;;;;;;16.63;93.13;99762.66;213791;1288;140109;-86
2024/03/03 11:24:27;;;;;;;39.90;25.30;;;;;;;16.49;93.61;99761.71;214198;1287;139077;-87
2024/03/03 11:29:28;;;;;;;34.60;22.70;;;;;;;16.37;92.18;99756.27;213694;1286;141955;-87
2024/03/03 11:34:30;;;;;;;35.60;23.00;;;;;;;16.41;92.78;99745.06;214483;1290;139622;-86
2024/03/03 11:39:30;;;;;;;32.00;21.00;;;;;;;16.41;92.49;99747.70;213815;1286;141001;-86
2024/03/03 11:44:36;;;;;;;31.70;19.50;;;;;;;16.26;90.85;99743.81;214284;1285;139035;-87
2024/03/03 11:49:42;;;;;;;42.30;26.40;;;;;;;16.27;91.04;99739.66;214222;1286;140795;-87
2024/03/03 11:54:42;;;;;;;37.30;23.60;;;;;;;16.07;92.01;99745.35;215182;1285;138823;-89
2024/03/03 11:59:46;;;;;;;36.00;23.10;;;;;;;16.01;92.40;99743.98;214029;1285;139959;-87
2024/03/03 12:04:46;;;;;;;33.80;20.90;;;;;;;16.00;92.57;99740.22;214399;1285;139096;-86
2024/03/03 12:09:47;;;;;;;31.40;19.30;;;;;;;16.01;90.51;99741.70;214067;1288;140770;-87
2024/03/03 12:14:47;;;;;;;28.20;18.40;;;;;;;15.83;88.67;99737.48;214328;1285;139142;-84
2024/03/03 12:19:48;;;;;;;28.30;18.50;;;;;;;15.77;89.73;99724.70;214600;1285;139913;-85
2024/03/03 12:24:56;;;;;;;27.90;16.70;;;;;;;15.67;88.86;99720.70;215759;1288;140182;-86
2024/03/03 12:30:00;;;;;;;30.50;18.40;;;;;;;15.72;91.02;99716.88;214972;1285;140021;-84
2024/03/03 12:35:01;;;;;;;29.10;17.30;;;;;;;15.83;90.07;99715.77;215247;1286;139522;-85
2024/03/03 12:40:02;;;;;;;24.40;14.70;;;;;;;15.90;91.67;99713.95;214431;1288;142260;-85
2024/03/03 12:45:03;;;;;;;27.80;15.40;;;;;;;15.94;89.05;99708.78;214200;1288;138990;-85
2024/03/03 12:50:03;;;;;;;23.60;13.90;;;;;;;15.95;88.61;99703.98;213824;1284;140384;-85
2024/03/03 12:55:04;;;;;;;22.70;14.40;;;;;;;16.02;89.61;99699.55;214796;1285;97962;-85
2024/03/03 13:00:07;;;;;;;22.20;13.70;;;;;;;16.09;89.06;99696.46;213375;1290;140135;-86
2024/03/03 13:05:10;;;;;;;23.20;14.60;;;;;;;16.12;89.66;99695.58;214640;1286;139001;-84
2024/03/03 13:10:22;;;;;;;21.80;12.90;;;;;;;16.21;88.94;99696.33;213528;1285;141273;-86
2024/03/03 13:15:25;;;;;;;17.50;10.10;;;;;;;16.26;86.18;99699.71;214347;1285;139214;-85
2024/03/03 13:20:28;;;;;;;17.40;10.30;;;;;;;16.27;85.68;99696.27;213419;1285;140310;-84
2024/03/03 13:25:28;;;;;;;16.70;8.60;;;;;;;16.24;83.21;99689.35;213729;1286;106628;-86
2024/03/03 13:30:29;;;;;;;18.60;10.50;;;;;;;16.15;83.88;99679.98;213634;1288;140365;-86
2024/03/03 13:35:31;;;;;;;17.30;9.10;;;;;;;16.19;84.17;99684.50;214126;1284;139012;-84
2024/03/03 13:40:31;;;;;;;17.90;8.80;;;;;;;16.15;82.14;99681.41;213734;1285;141729;-84
2024/03/03 13:45:32;;;;;;;15.50;9.00;;;;;;;16.11;82.87;99681.83;214233;1288;139591;-85
2024/03/03 13:50:33;;;;;;;24.40;11.30;;;;;;;16.09;82.19;99678.00;213716;1284;139938;-83
2024/03/03 13:55:34;;;;;;;19.30;11.00;;;;;;;16.04;82.28;99679.37;214978;1285;106569;-84
2024/03/03 14:00:35;;;;;;;20.20;11.50;;;;;;;15.96;83.40;99678.04;213624;1288;139687;-84
2024/03/03 14:05:35;;;;;;;22.50;12.40;;;;;;;15.86;83.38;99680.08;214159;1288;138842;-85
2024/03/03 14:10:36;;;;;;;20.70;11.70;;;;;;;15.79;84.17;99673.27;213616;1284;140394;-85
2024/03/03 14:15:37;;;;;;;21.10;10.90;;;;;;;15.73;84.31;99670.23;214020;1288;140116;-86
2024/03/03 14:20:38;;;;;;;18.30;10.50;;;;;;;15.67;84.42;99672.52;212999;1291;140405;-85
2024/03/03 14:25:38;;;;;;;18.30;11.70;;;;;;;15.66;83.85;99674.11;213445;1286;99279;-86
2024/03/03 14:30:40;;;;;;;20.40;10.90;;;;;;;15.61;82.66;99674.63;213508;1288;139851;-87
2024/03/03 14:35:40;;;;;;;16.30;8.80;;;;;;;15.59;83.81;99674.58;214103;1285;140288;-85
2024/03/03 14:40:41;;;;;;;18.30;9.60;;;;;;;15.53;81.77;99678.45;213402;1285;141121;-86
2024/03/03 14:45:41;;;;;;;15.80;8.70;;;;;;;15.44;81.46;99674.42;214186;1284;139653;-86
2024/03/03 14:50:41;;;;;;;18.90;9.40;;;;;;;15.37;81.99;99681.00;213632;1288;140013;-86
2024/03/03 14:55:42;;;;;;;15.30;9.40;;;;;;;15.31;81.82;99681.01;214665;1285;97970;-86
2024/03/03 15:00:42;;;;;;;17.20;9.70;;;;;;;15.23;82.37;99681.16;213348;1290;139778;-89
2024/03/03 15:05:43;;;;;;;19.20;9.80;;;;;;;15.14;82.70;99683.48;214035;1287;138707;-86
2024/03/03 15:10:44;;;;;;;16.90;9.50;;;;;;;15.03;83.14;99684.23;213198;1285;140521;-84
2024/03/03 15:15:44;;;;;;;13.90;8.50;;;;;;;14.95;84.15;99686.29;213873;1286;138958;-84
2024/03/03 15:20:44;;;;;;;14.20;8.40;;;;;;;14.91;83.80;99686.98;213070;1286;141226;-84
2024/03/03 15:25:45;;;;;;;15.20;8.40;;;;;;;14.84;84.09;99687.20;213941;1288;98155;-84
2024/03/03 15:30:45;;;;;;;15.80;8.30;;;;;;;14.77;83.82;99684.64;213453;1286;139640;-84
2024/03/03 15:35:46;;;;;;;16.10;9.20;;;;;;;14.69;83.47;99685.42;214055;1290;140472;-85
2024/03/03 15:40:47;;;;;;;23.10;11.80;;;;;;;14.65;84.89;99691.50;213362;1286;139707;-87
2024/03/03 15:45:48;;;;;;;24.60;15.90;;;;;;;14.58;87.25;99689.80;213803;1287;139478;-87
2024/03/03 15:50:48;;;;;;;29.70;16.60;;;;;;;14.51;89.08;99684.77;213371;1286;141150;-88
2024/03/03 15:55:49;;;;;;;27.60;15.60;;;;;;;14.42;90.20;99688.71;214530;1286;98559;-84
2024/03/03 16:00:50;;;;;;;30.90;19.30;;;;;;;14.34;90.79;99683.48;213576;1285;140259;-85
2024/03/03 16:05:50;;;;;;;32.30;19.30;;;;;;;14.23;92.37;99686.64;214244;1284;139464;-89
2024/03/03 16:10:53;;;;;;;33.50;20.50;;;;;;;14.15;93.43;99691.73;213787;1285;140039;-87
2024/03/03 16:15:53;;;;;;;35.30;21.60;;;;;;;14.09;94.44;99687.63;214262;1288;139682;-85
2024/03/03 16:20:53;;;;;;;33.30;21.20;;;;;;;13.99;95.32;99687.05;213747;1285;139403;-85
2024/03/03 16:25:54;;;;;;;35.80;22.70;;;;;;;13.92;96.24;99690.56;214173;1285;139090;-86
2024/03/03 16:30:54;;;;;;;38.50;23.40;;;;;;;13.83;96.60;99691.33;213767;1288;142166;-85
2024/03/03 16:35:56;;;;;;;37.60;23.40;;;;;;;13.73;97.48;99687.59;214439;1285;140143;-86
2024/03/03 16:40:57;;;;;;;44.30;28.50;;;;;;;13.65;97.98;99688.25;213825;1284;140717;-86
2024/03/03 16:45:58;;;;;;;39.60;25.50;;;;;;;13.59;98.64;99688.48;214365;1285;139260;-85
2024/03/03 16:50:58;;;;;;;42.60;24.90;;;;;;;13.51;99.09;99690.33;213018;1287;140147;-85
2024/03/03 16:55:59;;;;;;;41.00;25.20;;;;;;;13.45;99.86;99694.73;213534;1286;139954;-85
2024/03/03 17:01:00;;;;;;;37.20;23.50;;;;;;;13.37;99.92;99693.02;213407;1286;140489;-86
2024/03/03 17:06:00;;;;;;;44.00;25.80;;;;;;;13.30;100.00;99695.57;213484;1286;139172;-90
2024/03/03 17:11:01;;;;;;;44.40;26.90;;;;;;;13.22;100.00;99696.20;213213;1286;141145;-89
2024/03/03 17:16:02;;;;;;;128.40;63.90;;;;;;;13.13;100.00;99700.49;213711;1284;139312;-89
2024/03/03 17:21:04;;;;;;;64.00;34.00;;;;;;;13.03;100.00;99704.63;213640;1288;140621;-89
2024/03/03 17:26:07;;;;;;;53.70;30.80;;;;;;;12.93;100.00;99705.88;214291;1288;139788;-88
2024/03/03 17:31:08;;;;;;;53.70;28.80;;;;;;;12.82;100.00;99714.59;213775;1284;140158;-88
2024/03/03 17:36:08;;;;;;;54.60;30.60;;;;;;;12.71;100.00;99713.73;214244;1284;140174;-89
2024/03/03 17:41:09;;;;;;;61.20;37.30;;;;;;;12.60;100.00;99714.38;213647;1285;140106;-89
2024/03/03 17:46:09;;;;;;;46.50;27.30;;;;;;;12.50;100.00;99717.95;214147;1285;139280;-90
2024/03/03 17:51:10;;;;;;;49.90;29.50;;;;;;;12.40;100.00;99718.34;213689;1288;140285;-88
2024/03/03 17:56:10;;;;;;;107.90;57.80;;;;;;;12.29;100.00;99716.60;214371;1286;139239;-87
2024/03/03 18:01:11;;;;;;;49.70;30.80;;;;;;;12.18;100.00;99720.15;214583;1285;140823;-86
2024/03/03 18:06:11;;;;;;;63.80;33.40;;;;;;;12.10;100.00;99724.06;214304;1288;139318;-87
2024/03/03 18:11:11;;;;;;;52.00;30.20;;;;;;;12.03;100.00;99724.04;213169;1286;140357;-87
2024/03/03 18:16:12;;;;;;;62.70;33.50;;;;;;;11.92;100.00;99725.91;213722;1290;139470;-87
2024/03/03 18:21:12;;;;;;;50.40;30.90;;;;;;;11.82;100.00;99724.78;213458;1285;140991;-89
2024/03/03 18:26:13;;;;;;;75.90;37.70;;;;;;;11.73;100.00;99726.56;214049;1285;139384;-88
2024/03/03 18:31:14;;;;;;;78.00;39.10;;;;;;;11.62;100.00;99728.58;213014;1287;140288;-89
2024/03/03 18:36:15;;;;;;;72.00;35.80;;;;;;;11.52;100.00;99727.80;213245;1286;139366;-86
2024/03/03 18:41:16;;;;;;;77.40;37.20;;;;;;;11.42;100.00;99726.42;213719;1288;141912;-88
2024/03/03 18:46:17;;;;;;;82.60;38.20;;;;;;;11.34;100.00;99726.14;213687;1284;141058;-88
2024/03/03 18:51:21;;;;;;;72.60;37.90;;;;;;;11.26;100.00;99732.77;213791;1288;139149;-89
2024/03/03 18:56:21;;;;;;;83.10;40.90;;;;;;;11.18;100.00;99733.35;213298;1290;140603;-89
2024/03/03 19:01:21;;;;;;;82.80;39.70;;;;;;;11.12;100.00;99740.60;214719;1285;98036;-88
2024/03/03 19:06:22;;;;;;;69.30;39.50;;;;;;;11.09;100.00;99747.38;213093;1290;140766;-88
2024/03/03 19:11:22;;;;;;;81.10;41.70;;;;;;;11.02;100.00;99748.72;213928;1286;139152;-86
2024/03/03 19:16:23;;;;;;;80.20;40.70;;;;;;;10.96;100.00;99752.43;213314;1285;140597;-86
2024/03/03 19:21:23;;;;;;;66.40;35.40;;;;;;;10.91;100.00;99753.38;214304;1284;139313;-87
2024/03/03 19:26:24;;;;;;;62.40;34.90;;;;;;;10.86;100.00;99751.11;213792;1285;140684;-86
2024/03/03 19:31:24;;;;;;;76.10;39.10;;;;;;;10.82;100.00;99753.01;214541;1285;98110;-87
2024/03/03 19:36:24;;;;;;;74.00;37.20;;;;;;;10.79;100.00;99758.11;213687;1285;142535;-86
2024/03/03 19:41:25;;;;;;;72.20;37.60;;;;;;;10.75;100.00;99753.79;213867;1286;139353;-86
2024/03/03 19:46:26;;;;;;;83.50;41.40;;;;;;;10.72;100.00;99752.38;213297;1285;141620;-87
2024/03/03 19:51:30;;;;;;;74.00;36.60;;;;;;;10.69;100.00;99755.21;213995;1285;139137;-87
2024/03/03 19:56:31;;;;;;;68.50;35.80;;;;;;;10.67;100.00;99752.77;213754;1288;141201;-86
2024/03/03 20:01:31;;;;;;;61.10;35.20;;;;;;;10.64;100.00;99749.63;214835;1284;105522;-86
2024/03/03 20:06:32;;;;;;;69.10;38.10;;;;;;;10.61;100.00;99754.58;213797;1284;140364;-86
2024/03/03 20:11:32;;;;;;;57.90;36.90;;;;;;;10.59;100.00;99757.27;213706;1286;139326;-86
2024/03/03 20:16:32;;;;;;;59.80;34.20;;;;;;;10.56;100.00;99760.23;213206;1289;140764;-88
2024/03/03 20:21:33;;;;;;;228.10;107.90;;;;;;;10.52;100.00;99767.23;214334;1288;139655;-87
2024/03/03 20:26:34;;;;;;;74.60;43.50;;;;;;;10.49;100.00;99766.36;214101;1285;189104;-87
2024/03/03 20:31:35;;;;;;;89.30;45.70;;;;;;;10.45;100.00;99763.85;214321;1287;98020;-87
2024/03/03 20:36:35;;;;;;;64.20;35.50;;;;;;;10.41;100.00;99764.31;213921;1286;140587;-87
2024/03/03 20:41:40;;;;;;;83.20;38.60;;;;;;;10.36;100.00;99762.73;213931;1289;139459;-88
2024/03/03 20:46:41;;;;;;;78.00;38.70;;;;;;;10.30;100.00;99756.91;213609;1288;140608;-88
2024/03/03 20:51:41;;;;;;;100.40;46.40;;;;;;;10.25;100.00;99758.23;214016;1288;139329;-87
2024/03/03 20:56:42;;;;;;;112.30;48.20;;;;;;;10.19;100.00;99752.58;213506;1286;140702;-87
2024/03/03 21:01:42;;;;;;;77.50;38.80;;;;;;;10.10;100.00;99753.91;213779;1286;99086;-87
2024/03/03 21:06:43;;;;;;;79.60;40.80;;;;;;;10.02;100.00;99750.39;213215;1291;140190;-87
2024/03/03 21:11:44;;;;;;;91.20;43.20;;;;;;;9.95;100.00;99748.33;213266;1286;139258;-86
2024/03/03 21:16:45;;;;;;;115.50;48.70;;;;;;;9.91;100.00;99750.36;213024;1287;140606;-88
2024/03/03 21:21:45;;;;;;;72.40;40.90;;;;;;;9.85;100.00;99751.36;213768;1289;139449;-86
2024/03/03 21:26:46;;;;;;;69.90;38.60;;;;;;;9.77;100.00;99749.05;213160;1290;140063;-84
2024/03/03 21:31:46;;;;;;;73.80;41.40;;;;;;;9.69;100.00;99745.89;214035;1287;98067;-84
2024/03/03 21:36:46;;;;;;;75.00;40.00;;;;;;;9.60;100.00;99746.80;213694;1289;139797;-84
2024/03/03 21:41:47;;;;;;;93.90;44.70;;;;;;;9.51;100.00;99745.82;213781;1292;139676;-84
2024/03/03 21:46:47;;;;;;;99.50;48.00;;;;;;;9.42;100.00;99746.87;213358;1287;140832;-84
2024/03/03 21:51:48;;;;;;;97.00;47.30;;;;;;;9.33;100.00;99749.81;214207;1284;139127;-84
2024/03/03 21:56:48;;;;;;;67.00;38.40;;;;;;;9.24;100.00;99747.56;213743;1288;140021;-84
2024/03/03 22:01:48;;;;;;;73.70;41.40;;;;;;;9.15;100.00;99751.28;214395;1288;97912;-85
2024/03/03 22:06:50;;;;;;;103.80;49.90;;;;;;;9.03;100.00;99750.58;214565;1286;140092;-85
2024/03/03 22:11:50;;;;;;;67.50;40.70;;;;;;;8.93;100.00;99751.23;214036;1290;139781;-87
2024/03/03 22:16:51;;;;;;;85.60;43.60;;;;;;;8.84;100.00;99754.05;213830;1288;140124;-86
2024/03/03 22:21:52;;;;;;;105.20;49.00;;;;;;;8.76;100.00;99751.48;214188;1288;138871;-86
2024/03/03 22:26:54;;;;;;;72.80;42.00;;;;;;;8.69;100.00;99747.37;213655;1285;140341;-86